Port Charlotte, Florida
Current Conditions -  °F | °C
As of 3:53 PM on Wednesday 26 Nov 2014 (Local Time) from KPGD Reporting Station
Clear Clear  
Wind Chill: 62°   Ceiling: Unl
Heat Index: 62°   Visibility: 10mi
Dew Point: 50°   Wind: 12mph
Humidity: 65%   Direction: 350°N
Pressure: 30.17"   Gusts: NA
Location:  26.98°N, 82.1°W
Report Text: KPGD 262053Z 35010KT 10SM CLR 17/10 A3017 RMK AO2 SLP215 T01670100 50003
Loading
Personal Weather Stations






























Interactive Weather Map New forecast layout! Learn more

10-Day Weather Forecast

Advertisements
Track Severe Weather on mobile